sensor_id;sensor_type;location;lat;lon;timestamp;temperature;humidity
42715;DHT22;28351;51.480;5.706;2023-04-07T00:01:29;8.90;99.90
42715;DHT22;28351;51.480;5.706;2023-04-07T00:04:13;8.90;99.90
42715;DHT22;28351;51.480;5.706;2023-04-07T00:06:42;8.90;99.90
42715;DHT22;28351;51.480;5.706;2023-04-07T00:09:09;8.90;99.90
42715;DHT22;28351;51.480;5.706;2023-04-07T00:11:37;8.90;99.90
42715;DHT22;28351;51.480;5.706;2023-04-07T00:14:06;8.80;99.90
42715;DHT22;28351;51.480;5.706;2023-04-07T00:16:31;8.80;99.90
42715;DHT22;28351;51.480;5.706;2023-04-07T00:18:57;8.80;99.90
42715;DHT22;28351;51.480;5.706;2023-04-07T00:21:34;8.80;99.90
42715;DHT22;28351;51.480;5.706;2023-04-07T00:23:59;8.80;99.90
42715;DHT22;28351;51.480;5.706;2023-04-07T00:26:25;8.80;99.90
42715;DHT22;28351;51.480;5.706;2023-04-07T00:28:56;8.80;99.90
42715;DHT22;28351;51.480;5.706;2023-04-07T00:31:22;8.80;99.90
42715;DHT22;28351;51.480;5.706;2023-04-07T00:33:47;8.80;99.90
42715;DHT22;28351;51.480;5.706;2023-04-07T00:36:14;8.70;99.90
42715;DHT22;28351;51.480;5.706;2023-04-07T00:38:40;8.70;99.90
42715;DHT22;28351;51.480;5.706;2023-04-07T00:41:05;8.70;99.90
42715;DHT22;28351;51.480;5.706;2023-04-07T00:43:31;8.60;99.90
42715;DHT22;28351;51.480;5.706;2023-04-07T00:45:57;8.60;99.90
42715;DHT22;28351;51.480;5.706;2023-04-07T00:48:22;8.60;99.90
42715;DHT22;28351;51.480;5.706;2023-04-07T00:50:49;8.50;99.90
42715;DHT22;28351;51.480;5.706;2023-04-07T00:53:14;8.50;99.90
42715;DHT22;28351;51.480;5.706;2023-04-07T00:55:40;8.40;99.90
42715;DHT22;28351;51.480;5.706;2023-04-07T00:58:06;8.40;99.90
42715;DHT22;28351;51.480;5.706;2023-04-07T01:00:43;8.40;99.90
42715;DHT22;28351;51.480;5.706;2023-04-07T01:03:27;8.40;99.90
42715;DHT22;28351;51.480;5.706;2023-04-07T01:05:59;8.40;99.90
42715;DHT22;28351;51.480;5.706;2023-04-07T01:11:41;8.40;99.90
42715;DHT22;28351;51.480;5.706;2023-04-07T01:14:10;8.40;99.90
42715;DHT22;28351;51.480;5.706;2023-04-07T01:16:49;8.40;99.90
42715;DHT22;28351;51.480;5.706;2023-04-07T01:19:45;8.40;99.90
42715;DHT22;28351;51.480;5.706;2023-04-07T01:22:15;8.40;99.90
42715;DHT22;28351;51.480;5.706;2023-04-07T01:27:36;8.60;99.90
42715;DHT22;28351;51.480;5.706;2023-04-07T01:30:03;8.50;99.90
42715;DHT22;28351;51.480;5.706;2023-04-07T01:32:31;8.60;99.90
42715;DHT22;28351;51.480;5.706;2023-04-07T01:35:01;8.50;99.90
42715;DHT22;28351;51.480;5.706;2023-04-07T01:37:29;8.50;99.90
42715;DHT22;28351;51.480;5.706;2023-04-07T01:39:55;8.40;99.90
42715;DHT22;28351;51.480;5.706;2023-04-07T01:42:21;8.50;99.90
42715;DHT22;28351;51.480;5.706;2023-04-07T01:44:47;8.40;99.90
42715;DHT22;28351;51.480;5.706;2023-04-07T01:47:13;8.40;99.90
42715;DHT22;28351;51.480;5.706;2023-04-07T01:49:40;8.40;99.90
42715;DHT22;28351;51.480;5.706;2023-04-07T01:52:06;8.40;99.90
42715;DHT22;28351;51.480;5.706;2023-04-07T01:54:36;8.40;99.90
42715;DHT22;28351;51.480;5.706;2023-04-07T01:57:01;8.30;99.90
42715;DHT22;28351;51.480;5.706;2023-04-07T01:59:27;8.30;99.90
42715;DHT22;28351;51.480;5.706;2023-04-07T02:01:53;8.30;99.90
42715;DHT22;28351;51.480;5.706;2023-04-07T02:06:57;8.30;99.90
42715;DHT22;28351;51.480;5.706;2023-04-07T02:09:26;8.30;99.90
42715;DHT22;28351;51.480;5.706;2023-04-07T02:11:52;8.30;99.90
42715;DHT22;28351;51.480;5.706;2023-04-07T02:14:20;8.30;99.90
42715;DHT22;28351;51.480;5.706;2023-04-07T02:16:49;8.30;99.90
42715;DHT22;28351;51.480;5.706;2023-04-07T02:19:15;8.30;99.90
42715;DHT22;28351;51.480;5.706;2023-04-07T02:21:41;8.30;99.90
42715;DHT22;28351;51.480;5.706;2023-04-07T02:24:10;8.30;99.90
42715;DHT22;28351;51.480;5.706;2023-04-07T02:26:36;8.20;99.90
42715;DHT22;28351;51.480;5.706;2023-04-07T02:29:02;8.20;99.90
42715;DHT22;28351;51.480;5.706;2023-04-07T02:31:28;8.30;99.90
42715;DHT22;28351;51.480;5.706;2023-04-07T02:33:56;8.30;99.90
42715;DHT22;28351;51.480;5.706;2023-04-07T02:36:22;8.20;99.90
42715;DHT22;28351;51.480;5.706;2023-04-07T02:38:48;8.20;99.90
42715;DHT22;28351;51.480;5.706;2023-04-07T02:41:22;8.20;99.90
42715;DHT22;28351;51.480;5.706;2023-04-07T02:43:58;8.20;99.90
42715;DHT22;28351;51.480;5.706;2023-04-07T02:46:24;8.10;99.90
42715;DHT22;28351;51.480;5.706;2023-04-07T02:48:50;8.10;99.90
42715;DHT22;28351;51.480;5.706;2023-04-07T02:51:16;8.10;99.90
42715;DHT22;28351;51.480;5.706;2023-04-07T02:53:42;8.10;99.90
42715;DHT22;28351;51.480;5.706;2023-04-07T02:56:07;8.10;99.90
42715;DHT22;28351;51.480;5.706;2023-04-07T02:58:33;8.10;99.90
42715;DHT22;28351;51.480;5.706;2023-04-07T03:01:04;8.10;99.90
42715;DHT22;28351;51.480;5.706;2023-04-07T03:03:33;8.10;99.90
42715;DHT22;28351;51.480;5.706;2023-04-07T03:05:58;8.10;99.90
42715;DHT22;28351;51.480;5.706;2023-04-07T03:08:24;8.10;99.90
42715;DHT22;28351;51.480;5.706;2023-04-07T03:10:50;8.10;99.90
42715;DHT22;28351;51.480;5.706;2023-04-07T03:13:15;8.10;99.90
42715;DHT22;28351;51.480;5.706;2023-04-07T03:15:47;8.10;99.90
42715;DHT22;28351;51.480;5.706;2023-04-07T03:18:15;8.10;99.90
42715;DHT22;28351;51.480;5.706;2023-04-07T03:20:43;8.00;99.90
42715;DHT22;28351;51.480;5.706;2023-04-07T03:23:11;8.00;99.90
42715;DHT22;28351;51.480;5.706;2023-04-07T03:25:37;8.10;99.90
42715;DHT22;28351;51.480;5.706;2023-04-07T03:28:03;8.00;99.90
42715;DHT22;28351;51.480;5.706;2023-04-07T03:30:28;8.00;99.90
42715;DHT22;28351;51.480;5.706;2023-04-07T03:32:54;8.10;99.90
42715;DHT22;28351;51.480;5.706;2023-04-07T03:35:19;8.10;99.90
42715;DHT22;28351;51.480;5.706;2023-04-07T03:37:45;8.00;99.90
42715;DHT22;28351;51.480;5.706;2023-04-07T03:40:11;8.10;99.90
42715;DHT22;28351;51.480;5.706;2023-04-07T03:42:37;8.00;99.90
42715;DHT22;28351;51.480;5.706;2023-04-07T03:45:02;8.10;99.90
42715;DHT22;28351;51.480;5.706;2023-04-07T03:47:28;8.00;99.90
42715;DHT22;28351;51.480;5.706;2023-04-07T03:49:54;8.00;99.90
42715;DHT22;28351;51.480;5.706;2023-04-07T03:52:22;8.10;99.90
42715;DHT22;28351;51.480;5.706;2023-04-07T03:54:48;8.00;99.90
42715;DHT22;28351;51.480;5.706;2023-04-07T03:57:13;8.00;99.90
42715;DHT22;28351;51.480;5.706;2023-04-07T03:59:39;8.00;99.90
42715;DHT22;28351;51.480;5.706;2023-04-07T04:02:04;8.00;99.90
42715;DHT22;28351;51.480;5.706;2023-04-07T04:04:30;8.10;99.90
42715;DHT22;28351;51.480;5.706;2023-04-07T04:06:56;8.10;99.90
42715;DHT22;28351;51.480;5.706;2023-04-07T04:09:21;8.10;99.90
42715;DHT22;28351;51.480;5.706;2023-04-07T04:11:48;8.00;99.90
42715;DHT22;28351;51.480;5.706;2023-04-07T04:14:13;8.10;99.90
42715;DHT22;28351;51.480;5.706;2023-04-07T04:16:40;8.00;99.90
42715;DHT22;28351;51.480;5.706;2023-04-07T04:19:05;8.00;99.90
42715;DHT22;28351;51.480;5.706;2023-04-07T04:21:31;8.00;99.90
42715;DHT22;28351;51.480;5.706;2023-04-07T04:23:56;8.10;99.90
42715;DHT22;28351;51.480;5.706;2023-04-07T04:26:22;8.10;99.90
42715;DHT22;28351;51.480;5.706;2023-04-07T04:28:50;8.00;99.90
42715;DHT22;28351;51.480;5.706;2023-04-07T04:31:16;8.00;99.90
42715;DHT22;28351;51.480;5.706;2023-04-07T04:33:41;8.00;99.90
42715;DHT22;28351;51.480;5.706;2023-04-07T04:36:07;8.00;99.90
42715;DHT22;28351;51.480;5.706;2023-04-07T04:38:33;8.00;99.90
42715;DHT22;28351;51.480;5.706;2023-04-07T04:40:58;8.00;99.90
42715;DHT22;28351;51.480;5.706;2023-04-07T04:43:24;8.00;99.90
42715;DHT22;28351;51.480;5.706;2023-04-07T04:45:49;8.00;99.90
42715;DHT22;28351;51.480;5.706;2023-04-07T04:48:15;8.00;99.90
42715;DHT22;28351;51.480;5.706;2023-04-07T04:50:41;7.90;99.90
42715;DHT22;28351;51.480;5.706;2023-04-07T04:53:07;7.90;99.90
42715;DHT22;28351;51.480;5.706;2023-04-07T04:55:34;7.90;99.90
42715;DHT22;28351;51.480;5.706;2023-04-07T04:58:00;7.90;99.90
42715;DHT22;28351;51.480;5.706;2023-04-07T05:00:26;7.90;99.90
42715;DHT22;28351;51.480;5.706;2023-04-07T05:02:51;7.90;99.90
42715;DHT22;28351;51.480;5.706;2023-04-07T05:05:17;7.90;99.90
42715;DHT22;28351;51.480;5.706;2023-04-07T05:07:42;7.90;99.90
42715;DHT22;28351;51.480;5.706;2023-04-07T05:10:08;7.80;99.90
42715;DHT22;28351;51.480;5.706;2023-04-07T05:12:34;7.80;99.90
42715;DHT22;28351;51.480;5.706;2023-04-07T05:15:00;7.80;99.90
42715;DHT22;28351;51.480;5.706;2023-04-07T05:17:26;7.80;99.90
42715;DHT22;28351;51.480;5.706;2023-04-07T05:19:51;7.80;99.90
42715;DHT22;28351;51.480;5.706;2023-04-07T05:22:17;7.80;99.90
42715;DHT22;28351;51.480;5.706;2023-04-07T05:24:42;7.80;99.90
42715;DHT22;28351;51.480;5.706;2023-04-07T05:27:08;7.80;99.90
42715;DHT22;28351;51.480;5.706;2023-04-07T05:29:33;7.80;99.90
42715;DHT22;28351;51.480;5.706;2023-04-07T05:31:59;7.80;99.90
42715;DHT22;28351;51.480;5.706;2023-04-07T05:34:26;7.90;99.90
42715;DHT22;28351;51.480;5.706;2023-04-07T05:36:52;7.90;99.90
42715;DHT22;28351;51.480;5.706;2023-04-07T05:39:17;8.00;99.90
42715;DHT22;28351;51.480;5.706;2023-04-07T05:41:43;8.00;99.90
42715;DHT22;28351;51.480;5.706;2023-04-07T05:44:11;8.00;99.90
42715;DHT22;28351;51.480;5.706;2023-04-07T05:46:37;8.10;99.90
42715;DHT22;28351;51.480;5.706;2023-04-07T05:49:02;8.00;99.90
42715;DHT22;28351;51.480;5.706;2023-04-07T05:51:28;8.10;99.90
42715;DHT22;28351;51.480;5.706;2023-04-07T05:53:53;8.10;99.90
42715;DHT22;28351;51.480;5.706;2023-04-07T05:56:19;8.10;99.90
42715;DHT22;28351;51.480;5.706;2023-04-07T05:58:46;8.10;99.90
42715;DHT22;28351;51.480;5.706;2023-04-07T06:01:11;8.10;99.90
42715;DHT22;28351;51.480;5.706;2023-04-07T06:03:37;8.20;99.90
42715;DHT22;28351;51.480;5.706;2023-04-07T06:06:06;8.20;99.90
42715;DHT22;28351;51.480;5.706;2023-04-07T06:08:31;8.10;99.90
42715;DHT22;28351;51.480;5.706;2023-04-07T06:10:57;8.20;99.90
42715;DHT22;28351;51.480;5.706;2023-04-07T06:13:23;8.20;99.90
42715;DHT22;28351;51.480;5.706;2023-04-07T06:15:48;8.20;99.90
42715;DHT22;28351;51.480;5.706;2023-04-07T06:18:14;8.30;99.90
42715;DHT22;28351;51.480;5.706;2023-04-07T06:20:39;8.40;99.90
42715;DHT22;28351;51.480;5.706;2023-04-07T06:23:05;8.40;99.90
42715;DHT22;28351;51.480;5.706;2023-04-07T06:25:31;8.40;99.90
42715;DHT22;28351;51.480;5.706;2023-04-07T06:27:57;8.40;99.90
42715;DHT22;28351;51.480;5.706;2023-04-07T06:30:47;8.40;99.90
42715;DHT22;28351;51.480;5.706;2023-04-07T06:33:15;8.40;99.90
42715;DHT22;28351;51.480;5.706;2023-04-07T06:35:41;8.30;99.90
42715;DHT22;28351;51.480;5.706;2023-04-07T06:38:07;8.40;99.90
42715;DHT22;28351;51.480;5.706;2023-04-07T06:40:32;8.60;99.90
42715;DHT22;28351;51.480;5.706;2023-04-07T06:42:58;8.60;99.90
42715;DHT22;28351;51.480;5.706;2023-04-07T06:45:24;8.60;99.90
42715;DHT22;28351;51.480;5.706;2023-04-07T06:47:49;8.60;99.90
42715;DHT22;28351;51.480;5.706;2023-04-07T06:50:15;8.60;99.90
42715;DHT22;28351;51.480;5.706;2023-04-07T06:52:45;8.60;99.90
42715;DHT22;28351;51.480;5.706;2023-04-07T06:55:12;8.60;99.90
42715;DHT22;28351;51.480;5.706;2023-04-07T06:57:38;8.70;99.90
42715;DHT22;28351;51.480;5.706;2023-04-07T07:00:04;8.70;99.90
42715;DHT22;28351;51.480;5.706;2023-04-07T07:02:32;8.70;99.90
42715;DHT22;28351;51.480;5.706;2023-04-07T07:05:00;8.80;99.90
42715;DHT22;28351;51.480;5.706;2023-04-07T07:07:26;8.80;99.90
42715;DHT22;28351;51.480;5.706;2023-04-07T07:09:53;8.90;99.90
42715;DHT22;28351;51.480;5.706;2023-04-07T07:12:18;8.90;99.90
42715;DHT22;28351;51.480;5.706;2023-04-07T07:14:44;8.90;99.90
42715;DHT22;28351;51.480;5.706;2023-04-07T07:17:09;8.90;99.90
42715;DHT22;28351;51.480;5.706;2023-04-07T07:19:35;8.90;99.90
42715;DHT22;28351;51.480;5.706;2023-04-07T07:22:04;8.90;99.90
42715;DHT22;28351;51.480;5.706;2023-04-07T07:24:30;8.80;99.90
42715;DHT22;28351;51.480;5.706;2023-04-07T07:26:58;8.80;99.90
42715;DHT22;28351;51.480;5.706;2023-04-07T07:29:24;8.90;99.90
42715;DHT22;28351;51.480;5.706;2023-04-07T07:31:50;8.90;99.90
42715;DHT22;28351;51.480;5.706;2023-04-07T07:34:15;8.90;99.90
42715;DHT22;28351;51.480;5.706;2023-04-07T07:36:41;8.90;99.90
42715;DHT22;28351;51.480;5.706;2023-04-07T07:39:07;9.00;99.90
42715;DHT22;28351;51.480;5.706;2023-04-07T07:41:40;9.10;99.90
42715;DHT22;28351;51.480;5.706;2023-04-07T07:44:08;9.20;99.90
42715;DHT22;28351;51.480;5.706;2023-04-07T07:46:33;9.30;99.90
42715;DHT22;28351;51.480;5.706;2023-04-07T07:49:02;9.30;99.90
42715;DHT22;28351;51.480;5.706;2023-04-07T07:51:29;9.40;99.90
42715;DHT22;28351;51.480;5.706;2023-04-07T07:53:55;9.50;99.90
42715;DHT22;28351;51.480;5.706;2023-04-07T07:56:20;9.50;99.90
42715;DHT22;28351;51.480;5.706;2023-04-07T07:58:46;9.50;99.90
42715;DHT22;28351;51.480;5.706;2023-04-07T08:01:12;9.50;99.90
42715;DHT22;28351;51.480;5.706;2023-04-07T08:03:38;9.40;99.90
42715;DHT22;28351;51.480;5.706;2023-04-07T08:06:03;9.50;99.90
42715;DHT22;28351;51.480;5.706;2023-04-07T08:08:29;9.40;99.90
42715;DHT22;28351;51.480;5.706;2023-04-07T08:10:55;9.50;99.90
42715;DHT22;28351;51.480;5.706;2023-04-07T08:13:21;9.60;99.90
42715;DHT22;28351;51.480;5.706;2023-04-07T08:15:52;9.50;99.90
42715;DHT22;28351;51.480;5.706;2023-04-07T08:18:18;9.60;99.90
42715;DHT22;28351;51.480;5.706;2023-04-07T08:20:44;9.50;99.90
42715;DHT22;28351;51.480;5.706;2023-04-07T08:23:11;9.50;99.90
42715;DHT22;28351;51.480;5.706;2023-04-07T08:25:37;9.40;99.90
42715;DHT22;28351;51.480;5.706;2023-04-07T08:28:10;9.40;99.90
42715;DHT22;28351;51.480;5.706;2023-04-07T08:30:36;9.40;99.90
42715;DHT22;28351;51.480;5.706;2023-04-07T08:33:04;9.60;99.90
42715;DHT22;28351;51.480;5.706;2023-04-07T08:35:29;9.80;99.90
42715;DHT22;28351;51.480;5.706;2023-04-07T08:37:55;9.90;99.90
42715;DHT22;28351;51.480;5.706;2023-04-07T08:40:21;10.00;99.90
42715;DHT22;28351;51.480;5.706;2023-04-07T08:42:47;10.20;99.90
42715;DHT22;28351;51.480;5.706;2023-04-07T08:45:17;10.30;99.90
42715;DHT22;28351;51.480;5.706;2023-04-07T08:47:45;10.40;99.90
42715;DHT22;28351;51.480;5.706;2023-04-07T08:50:13;10.50;99.90
42715;DHT22;28351;51.480;5.706;2023-04-07T08:52:44;10.30;99.90
42715;DHT22;28351;51.480;5.706;2023-04-07T08:55:11;10.30;99.90
42715;DHT22;28351;51.480;5.706;2023-04-07T08:57:37;10.20;99.90
42715;DHT22;28351;51.480;5.706;2023-04-07T09:00:04;10.30;99.90
42715;DHT22;28351;51.480;5.706;2023-04-07T09:02:33;10.40;99.90
42715;DHT22;28351;51.480;5.706;2023-04-07T09:04:59;10.60;99.90
42715;DHT22;28351;51.480;5.706;2023-04-07T09:07:25;10.70;99.90
42715;DHT22;28351;51.480;5.706;2023-04-07T09:09:50;10.70;99.90
42715;DHT22;28351;51.480;5.706;2023-04-07T09:12:16;10.40;99.90
42715;DHT22;28351;51.480;5.706;2023-04-07T09:14:42;10.50;99.90
42715;DHT22;28351;51.480;5.706;2023-04-07T09:17:08;10.40;99.90
42715;DHT22;28351;51.480;5.706;2023-04-07T09:19:33;10.50;99.90
42715;DHT22;28351;51.480;5.706;2023-04-07T09:21:59;10.50;99.90
42715;DHT22;28351;51.480;5.706;2023-04-07T09:24:27;10.70;99.90
42715;DHT22;28351;51.480;5.706;2023-04-07T09:27:14;10.80;99.90
42715;DHT22;28351;51.480;5.706;2023-04-07T09:29:42;10.80;99.90
42715;DHT22;28351;51.480;5.706;2023-04-07T09:32:09;10.90;99.90
42715;DHT22;28351;51.480;5.706;2023-04-07T09:34:36;11.00;99.90
42715;DHT22;28351;51.480;5.706;2023-04-07T09:37:04;10.80;99.90
42715;DHT22;28351;51.480;5.706;2023-04-07T09:39:30;10.50;99.90
42715;DHT22;28351;51.480;5.706;2023-04-07T09:41:56;10.20;99.90
42715;DHT22;28351;51.480;5.706;2023-04-07T09:44:23;10.10;99.90
42715;DHT22;28351;51.480;5.706;2023-04-07T09:46:50;10.20;99.90
42715;DHT22;28351;51.480;5.706;2023-04-07T09:49:16;10.30;99.90
42715;DHT22;28351;51.480;5.706;2023-04-07T09:51:55;10.40;99.90
42715;DHT22;28351;51.480;5.706;2023-04-07T09:54:36;10.70;99.90
42715;DHT22;28351;51.480;5.706;2023-04-07T09:57:03;10.90;99.90
42715;DHT22;28351;51.480;5.706;2023-04-07T09:59:30;11.10;99.90
42715;DHT22;28351;51.480;5.706;2023-04-07T10:01:57;11.00;99.90
42715;DHT22;28351;51.480;5.706;2023-04-07T10:04:24;11.00;99.90
42715;DHT22;28351;51.480;5.706;2023-04-07T10:06:51;11.00;99.90
42715;DHT22;28351;51.480;5.706;2023-04-07T10:09:17;10.80;99.90
42715;DHT22;28351;51.480;5.706;2023-04-07T10:11:43;10.80;99.90
42715;DHT22;28351;51.480;5.706;2023-04-07T10:14:10;10.90;99.90
42715;DHT22;28351;51.480;5.706;2023-04-07T10:16:38;11.00;99.90
42715;DHT22;28351;51.480;5.706;2023-04-07T10:19:06;10.80;99.90
42715;DHT22;28351;51.480;5.706;2023-04-07T10:21:38;10.80;99.90
42715;DHT22;28351;51.480;5.706;2023-04-07T10:26:55;10.80;99.90
42715;DHT22;28351;51.480;5.706;2023-04-07T10:29:23;10.80;99.90
42715;DHT22;28351;51.480;5.706;2023-04-07T10:31:50;10.70;99.90
42715;DHT22;28351;51.480;5.706;2023-04-07T10:34:17;10.50;99.90
42715;DHT22;28351;51.480;5.706;2023-04-07T10:37:08;10.50;99.90
42715;DHT22;28351;51.480;5.706;2023-04-07T10:39:35;10.40;99.90
42715;DHT22;28351;51.480;5.706;2023-04-07T10:42:02;10.40;99.90
42715;DHT22;28351;51.480;5.706;2023-04-07T10:47:06;10.40;99.90
42715;DHT22;28351;51.480;5.706;2023-04-07T10:49:32;10.40;99.90
42715;DHT22;28351;51.480;5.706;2023-04-07T10:54:39;10.40;99.90
42715;DHT22;28351;51.480;5.706;2023-04-07T10:57:09;10.50;99.90
42715;DHT22;28351;51.480;5.706;2023-04-07T10:59:38;10.40;99.90
42715;DHT22;28351;51.480;5.706;2023-04-07T11:04:40;10.10;99.90
42715;DHT22;28351;51.480;5.706;2023-04-07T11:07:13;9.80;99.90
42715;DHT22;28351;51.480;5.706;2023-04-07T11:09:42;9.60;99.90
42715;DHT22;28351;51.480;5.706;2023-04-07T11:12:17;9.50;99.90
42715;DHT22;28351;51.480;5.706;2023-04-07T11:14:46;9.50;99.90
42715;DHT22;28351;51.480;5.706;2023-04-07T11:17:13;9.60;99.90
42715;DHT22;28351;51.480;5.706;2023-04-07T11:19:52;9.60;99.90
42715;DHT22;28351;51.480;5.706;2023-04-07T11:22:18;9.80;99.90
42715;DHT22;28351;51.480;5.706;2023-04-07T11:24:45;10.00;99.90
42715;DHT22;28351;51.480;5.706;2023-04-07T11:27:15;10.10;99.90
42715;DHT22;28351;51.480;5.706;2023-04-07T11:29:48;10.20;99.90
42715;DHT22;28351;51.480;5.706;2023-04-07T11:32:15;10.30;99.90
42715;DHT22;28351;51.480;5.706;2023-04-07T11:34:46;10.70;99.90
42715;DHT22;28351;51.480;5.706;2023-04-07T11:37:23;11.10;99.90
42715;DHT22;28351;51.480;5.706;2023-04-07T11:39:56;11.40;99.90
42715;DHT22;28351;51.480;5.706;2023-04-07T11:42:36;11.80;99.90
42715;DHT22;28351;51.480;5.706;2023-04-07T11:45:02;11.50;99.90
42715;DHT22;28351;51.480;5.706;2023-04-07T11:47:36;11.00;99.90
42715;DHT22;28351;51.480;5.706;2023-04-07T11:50:02;10.80;99.90
42715;DHT22;28351;51.480;5.706;2023-04-07T11:52:27;10.60;99.90
42715;DHT22;28351;51.480;5.706;2023-04-07T11:54:53;10.60;99.90
42715;DHT22;28351;51.480;5.706;2023-04-07T11:57:27;10.60;99.90
42715;DHT22;28351;51.480;5.706;2023-04-07T12:00:09;10.80;99.90
42715;DHT22;28351;51.480;5.706;2023-04-07T12:02:36;11.10;99.90
42715;DHT22;28351;51.480;5.706;2023-04-07T12:05:02;11.30;99.90
42715;DHT22;28351;51.480;5.706;2023-04-07T12:07:28;11.40;99.90
42715;DHT22;28351;51.480;5.706;2023-04-07T12:09:54;11.40;99.90
42715;DHT22;28351;51.480;5.706;2023-04-07T12:12:29;11.40;99.90
42715;DHT22;28351;51.480;5.706;2023-04-07T12:14:55;11.20;99.90
42715;DHT22;28351;51.480;5.706;2023-04-07T12:17:25;11.30;99.90
42715;DHT22;28351;51.480;5.706;2023-04-07T12:19:52;11.50;99.90
42715;DHT22;28351;51.480;5.706;2023-04-07T12:22:20;11.50;99.90
42715;DHT22;28351;51.480;5.706;2023-04-07T12:25:11;11.70;99.90
42715;DHT22;28351;51.480;5.706;2023-04-07T12:27:45;11.80;99.90
42715;DHT22;28351;51.480;5.706;2023-04-07T12:30:12;12.00;99.90
42715;DHT22;28351;51.480;5.706;2023-04-07T12:32:38;12.10;99.90
42715;DHT22;28351;51.480;5.706;2023-04-07T12:35:07;12.30;99.90
42715;DHT22;28351;51.480;5.706;2023-04-07T12:37:33;12.10;99.90
42715;DHT22;28351;51.480;5.706;2023-04-07T12:39:58;12.10;99.90
42715;DHT22;28351;51.480;5.706;2023-04-07T12:42:24;12.50;99.90
42715;DHT22;28351;51.480;5.706;2023-04-07T12:44:50;12.40;99.90
42715;DHT22;28351;51.480;5.706;2023-04-07T12:47:18;12.20;99.90
42715;DHT22;28351;51.480;5.706;2023-04-07T12:50:02;11.90;99.90
42715;DHT22;28351;51.480;5.706;2023-04-07T12:52:28;11.80;99.90
42715;DHT22;28351;51.480;5.706;2023-04-07T12:54:54;11.60;99.90
42715;DHT22;28351;51.480;5.706;2023-04-07T12:57:29;11.40;99.90
42715;DHT22;28351;51.480;5.706;2023-04-07T12:59:55;11.20;99.90
42715;DHT22;28351;51.480;5.706;2023-04-07T13:02:21;11.00;99.90
42715;DHT22;28351;51.480;5.706;2023-04-07T13:04:46;11.00;99.90
42715;DHT22;28351;51.480;5.706;2023-04-07T13:07:12;10.90;99.90
42715;DHT22;28351;51.480;5.706;2023-04-07T13:09:39;10.90;99.90
42715;DHT22;28351;51.480;5.706;2023-04-07T13:12:08;11.00;99.90
42715;DHT22;28351;51.480;5.706;2023-04-07T13:14:36;11.10;99.90
42715;DHT22;28351;51.480;5.706;2023-04-07T13:17:02;11.00;99.90
42715;DHT22;28351;51.480;5.706;2023-04-07T13:19:28;11.20;99.90
42715;DHT22;28351;51.480;5.706;2023-04-07T13:21:55;11.20;99.90
42715;DHT22;28351;51.480;5.706;2023-04-07T13:24:46;11.10;99.90
42715;DHT22;28351;51.480;5.706;2023-04-07T13:27:24;10.90;99.90
42715;DHT22;28351;51.480;5.706;2023-04-07T13:29:56;10.80;99.90
42715;DHT22;28351;51.480;5.706;2023-04-07T13:32:22;10.80;99.90
42715;DHT22;28351;51.480;5.706;2023-04-07T13:34:51;10.80;99.90
42715;DHT22;28351;51.480;5.706;2023-04-07T13:37:17;10.90;99.90
42715;DHT22;28351;51.480;5.706;2023-04-07T13:39:44;11.00;99.90
42715;DHT22;28351;51.480;5.706;2023-04-07T13:42:22;11.10;99.90
42715;DHT22;28351;51.480;5.706;2023-04-07T13:44:48;11.10;99.90
42715;DHT22;28351;51.480;5.706;2023-04-07T13:47:16;11.00;99.90
42715;DHT22;28351;51.480;5.706;2023-04-07T13:49:51;11.20;99.90
42715;DHT22;28351;51.480;5.706;2023-04-07T13:52:16;11.30;99.90
42715;DHT22;28351;51.480;5.706;2023-04-07T13:54:45;11.30;99.90
42715;DHT22;28351;51.480;5.706;2023-04-07T13:57:11;11.20;99.90
42715;DHT22;28351;51.480;5.706;2023-04-07T13:59:38;11.20;99.90
42715;DHT22;28351;51.480;5.706;2023-04-07T14:02:04;11.30;99.90
42715;DHT22;28351;51.480;5.706;2023-04-07T14:04:30;11.40;99.90
42715;DHT22;28351;51.480;5.706;2023-04-07T14:06:55;11.30;99.90
42715;DHT22;28351;51.480;5.706;2023-04-07T14:09:21;11.30;99.90
42715;DHT22;28351;51.480;5.706;2023-04-07T14:11:46;11.20;99.90
42715;DHT22;28351;51.480;5.706;2023-04-07T14:14:13;11.00;99.90
42715;DHT22;28351;51.480;5.706;2023-04-07T14:17:05;10.90;99.90
42715;DHT22;28351;51.480;5.706;2023-04-07T14:19:45;10.70;99.90
42715;DHT22;28351;51.480;5.706;2023-04-07T14:25:20;10.60;99.90
42715;DHT22;28351;51.480;5.706;2023-04-07T14:27:46;10.50;99.90
42715;DHT22;28351;51.480;5.706;2023-04-07T14:30:21;10.40;99.90
42715;DHT22;28351;51.480;5.706;2023-04-07T14:32:47;10.40;99.90
42715;DHT22;28351;51.480;5.706;2023-04-07T14:35:12;10.50;99.90
42715;DHT22;28351;51.480;5.706;2023-04-07T14:37:38;10.40;99.90
42715;DHT22;28351;51.480;5.706;2023-04-07T14:40:04;10.40;99.90
42715;DHT22;28351;51.480;5.706;2023-04-07T14:42:30;10.40;99.90
42715;DHT22;28351;51.480;5.706;2023-04-07T14:45:01;10.40;99.90
42715;DHT22;28351;51.480;5.706;2023-04-07T14:47:27;10.70;99.90
42715;DHT22;28351;51.480;5.706;2023-04-07T14:49:53;10.70;99.90
42715;DHT22;28351;51.480;5.706;2023-04-07T14:52:19;10.80;99.90
42715;DHT22;28351;51.480;5.706;2023-04-07T14:54:54;10.90;99.90
42715;DHT22;28351;51.480;5.706;2023-04-07T14:57:20;11.10;99.90
42715;DHT22;28351;51.480;5.706;2023-04-07T14:59:55;11.30;99.90
42715;DHT22;28351;51.480;5.706;2023-04-07T15:02:21;11.30;99.90
42715;DHT22;28351;51.480;5.706;2023-04-07T15:04:47;11.10;99.90
42715;DHT22;28351;51.480;5.706;2023-04-07T15:07:12;11.00;99.90
42715;DHT22;28351;51.480;5.706;2023-04-07T15:09:38;10.90;99.90
42715;DHT22;28351;51.480;5.706;2023-04-07T15:12:09;10.80;99.90
42715;DHT22;28351;51.480;5.706;2023-04-07T15:14:35;10.60;99.90
42715;DHT22;28351;51.480;5.706;2023-04-07T15:17:01;10.60;99.90
42715;DHT22;28351;51.480;5.706;2023-04-07T15:19:26;10.60;99.90
42715;DHT22;28351;51.480;5.706;2023-04-07T15:21:58;10.60;99.90
42715;DHT22;28351;51.480;5.706;2023-04-07T15:24:24;10.60;99.90
42715;DHT22;28351;51.480;5.706;2023-04-07T15:26:52;10.70;99.90
42715;DHT22;28351;51.480;5.706;2023-04-07T15:29:18;10.70;99.90
42715;DHT22;28351;51.480;5.706;2023-04-07T15:31:43;10.80;99.90
42715;DHT22;28351;51.480;5.706;2023-04-07T15:34:09;10.80;99.90
42715;DHT22;28351;51.480;5.706;2023-04-07T15:36:34;10.80;99.90
42715;DHT22;28351;51.480;5.706;2023-04-07T15:39:02;10.70;99.90
42715;DHT22;28351;51.480;5.706;2023-04-07T15:41:28;10.60;99.90
42715;DHT22;28351;51.480;5.706;2023-04-07T15:43:54;10.50;99.90
42715;DHT22;28351;51.480;5.706;2023-04-07T15:46:26;10.50;99.90
42715;DHT22;28351;51.480;5.706;2023-04-07T15:48:52;10.40;99.90
42715;DHT22;28351;51.480;5.706;2023-04-07T15:51:18;10.50;99.90
42715;DHT22;28351;51.480;5.706;2023-04-07T15:53:43;10.50;99.90
42715;DHT22;28351;51.480;5.706;2023-04-07T15:56:11;10.60;99.90
42715;DHT22;28351;51.480;5.706;2023-04-07T15:58:37;10.50;99.90
42715;DHT22;28351;51.480;5.706;2023-04-07T16:01:06;10.50;99.90
42715;DHT22;28351;51.480;5.706;2023-04-07T16:03:32;10.50;99.90
42715;DHT22;28351;51.480;5.706;2023-04-07T16:05:58;10.40;99.90